Time;durP1;ratioP1;P1;durP2;ratioP2;P2;SDS_P1;SDS_P2;PMS_P1;PMS_P2;Temp;Humidity;BMP_temperature;BMP_pressure;BME280_temperature;BME280_humidity;BME280_pressure;Samples;Min_cycle;Max_cycle;Signal;HPM_P1;HPM_P2
2022/10/21 00:02:54;;;;;;;15.80;10.60;;;1.30;99.90;;;;;;8411120;28;20219;-69
2022/10/21 00:06:55;;;;;;;21.00;11.90;;;1.50;99.90;;;;;;8391961;28;20176;-69
2022/10/21 00:10:59;;;;;;;20.60;11.30;;;1.50;99.90;;;;;;8394243;28;20185;-69
2022/10/21 00:15:01;;;;;;;18.17;10.93;;;1.60;99.90;;;;;;8412848;28;20191;-69
2022/10/21 00:19:01;;;;;;;20.17;12.20;;;1.50;99.90;;;;;;8412774;28;20180;-70
2022/10/21 00:23:02;;;;;;;20.33;11.33;;;1.60;99.90;;;;;;8395207;28;20296;-69
2022/10/21 00:27:03;;;;;;;21.13;11.73;;;1.60;99.90;;;;;;8410836;28;20180;-69
2022/10/21 00:31:08;;;;;;;19.53;12.03;;;1.60;99.90;;;;;;8393239;28;20192;-69
2022/10/21 00:35:09;;;;;;;16.27;9.87;;;1.70;99.90;;;;;;8394289;28;20168;-70
2022/10/21 00:39:10;;;;;;;17.67;10.10;;;1.80;99.90;;;;;;8391713;28;20188;-69
2022/10/21 00:43:11;;;;;;;15.60;9.77;;;1.80;99.90;;;;;;8393777;28;20358;-69
2022/10/21 00:47:17;;;;;;;19.27;10.27;;;1.80;99.90;;;;;;8412142;28;20191;-69
2022/10/21 00:51:18;;;;;;;15.00;9.33;;;1.90;99.90;;;;;;8410475;28;20196;-69
2022/10/21 00:55:20;;;;;;;17.43;10.17;;;1.90;99.90;;;;;;8410824;28;20246;-69
2022/10/21 00:59:25;;;;;;;17.07;10.27;;;1.90;99.90;;;;;;8387656;28;20255;-69
2022/10/21 01:03:28;;;;;;;15.90;10.27;;;1.90;99.90;;;;;;8410362;28;20216;-69
2022/10/21 01:07:29;;;;;;;15.77;10.13;;;1.90;99.90;;;;;;8409597;28;20176;-69
2022/10/21 01:11:35;;;;;;;15.53;10.10;;;2.00;99.90;;;;;;8393380;28;20184;-69
2022/10/21 01:15:44;;;;;;;14.67;9.30;;;2.00;99.90;;;;;;8391561;28;20180;-69
2022/10/21 01:20:22;;;;;;;16.27;11.23;;;2.10;99.90;;;;;;8400825;28;20231;-69
2022/10/21 01:25:03;;;;;;;15.00;9.00;;;2.20;99.90;;;;;;8393024;28;20189;-70
2022/10/21 01:29:19;;;;;;;19.70;11.80;;;2.20;99.90;;;;;;8408942;28;20269;-69
2022/10/21 01:33:38;;;;;;;16.60;10.10;;;2.30;99.90;;;;;;8411114;28;20200;-69
2022/10/21 01:37:59;;;;;;;20.57;11.97;;;2.30;99.90;;;;;;8382974;28;20196;-69
2022/10/21 01:42:00;;;;;;;20.20;12.00;;;2.40;99.90;;;;;;8409695;28;20507;-69
2022/10/21 01:46:12;;;;;;;18.73;12.03;;;2.50;99.90;;;;;;8394933;28;20243;-69
2022/10/21 01:50:18;;;;;;;21.00;12.33;;;2.70;99.90;;;;;;8411966;28;20248;-69
2022/10/21 01:54:24;;;;;;;23.27;12.20;;;2.80;99.90;;;;;;8392015;28;20251;-69
2022/10/21 01:58:29;;;;;;;16.90;10.70;;;2.90;99.90;;;;;;8393795;28;20204;-69
2022/10/21 02:02:33;;;;;;;16.77;10.73;;;2.90;99.90;;;;;;8398569;28;20223;-69
2022/10/21 02:06:34;;;;;;;18.07;11.70;;;3.00;99.90;;;;;;8396205;28;20237;-69
2022/10/21 02:10:42;;;;;;;15.40;10.33;;;3.20;99.90;;;;;;8414789;28;20192;-69
2022/10/21 02:14:47;;;;;;;19.57;12.70;;;3.30;99.90;;;;;;8414226;28;20189;-69
2022/10/21 02:18:48;;;;;;;17.30;12.07;;;3.40;99.90;;;;;;8413966;28;20219;-69
2022/10/21 02:22:49;;;;;;;20.67;12.80;;;3.50;99.90;;;;;;8414679;28;20208;-69
2022/10/21 02:26:50;;;;;;;19.47;11.83;;;3.60;99.90;;;;;;8395515;28;20638;-69
2022/10/21 02:31:29;;;;;;;24.03;14.03;;;3.70;99.90;;;;;;8394514;28;20181;-69
2022/10/21 02:35:54;;;;;;;22.67;14.03;;;3.90;99.90;;;;;;8391739;28;20181;-69
2022/10/21 02:40:05;;;;;;;27.60;15.07;;;4.00;99.90;;;;;;8399941;28;20192;-70
2022/10/21 02:44:07;;;;;;;21.87;13.33;;;4.10;99.90;;;;;;8394366;28;20216;-69
2022/10/21 02:48:08;;;;;;;23.60;13.70;;;4.10;99.90;;;;;;8410927;28;20184;-69
2022/10/21 02:52:09;;;;;;;22.10;12.60;;;4.20;99.90;;;;;;8395252;28;20192;-69
2022/10/21 02:56:09;;;;;;;19.80;13.50;;;4.20;99.90;;;;;;8410265;28;20188;-70
2022/10/21 03:00:11;;;;;;;18.27;12.03;;;4.30;99.90;;;;;;8395313;28;20208;-70
2022/10/21 03:04:12;;;;;;;26.07;14.00;;;4.40;99.90;;;;;;8398180;28;20203;-69
2022/10/21 03:08:12;;;;;;;28.47;16.90;;;4.40;99.90;;;;;;8413433;28;20176;-70
2022/10/21 03:12:13;;;;;;;27.50;15.80;;;4.40;99.90;;;;;;8413182;28;20268;-70
2022/10/21 03:16:14;;;;;;;23.70;14.07;;;4.40;99.90;;;;;;8395181;28;20180;-69
2022/10/21 03:20:15;;;;;;;21.03;13.93;;;4.50;99.90;;;;;;8415707;28;20366;-69
2022/10/21 03:24:16;;;;;;;23.20;13.37;;;4.50;99.90;;;;;;8396082;28;20192;-69
2022/10/21 03:28:16;;;;;;;23.33;14.00;;;4.50;99.90;;;;;;8393755;28;20192;-69
2022/10/21 03:32:17;;;;;;;25.93;14.77;;;4.60;99.90;;;;;;8389905;28;20180;-69
2022/10/21 03:36:18;;;;;;;25.63;15.37;;;4.60;99.90;;;;;;8395157;28;20199;-69
2022/10/21 03:40:19;;;;;;;23.73;14.47;;;4.70;99.90;;;;;;8412958;28;20196;-69
2022/10/21 03:44:20;;;;;;;21.57;14.17;;;4.90;99.90;;;;;;8409469;28;20177;-69
2022/10/21 03:48:21;;;;;;;21.17;13.30;;;5.00;99.90;;;;;;8412192;28;20233;-69
2022/10/21 03:52:22;;;;;;;28.10;14.30;;;5.10;99.90;;;;;;8411055;28;20288;-69
2022/10/21 03:56:23;;;;;;;20.37;12.77;;;5.20;99.90;;;;;;8408418;28;20195;-69
2022/10/21 04:00:24;;;;;;;19.80;13.73;;;5.30;99.90;;;;;;8405954;28;20264;-70
2022/10/21 04:04:25;;;;;;;20.73;13.23;;;5.40;99.90;;;;;;8392538;28;20192;-69
2022/10/21 04:08:25;;;;;;;17.17;11.23;;;5.50;99.90;;;;;;8392174;28;20180;-70
2022/10/21 04:12:26;;;;;;;17.30;12.07;;;5.60;99.90;;;;;;8412368;28;20184;-69
2022/10/21 04:16:27;;;;;;;18.37;12.13;;;5.60;99.90;;;;;;8398121;28;20220;-69
2022/10/21 04:20:28;;;;;;;16.93;11.40;;;5.70;99.90;;;;;;8411745;28;20204;-69
2022/10/21 04:24:29;;;;;;;19.83;15.07;;;5.80;99.90;;;;;;8396204;28;20181;-69
2022/10/21 04:28:29;;;;;;;23.97;15.43;;;5.80;99.90;;;;;;8396127;28;20264;-70
2022/10/21 04:32:30;;;;;;;19.97;14.23;;;5.80;99.90;;;;;;8396738;28;20196;-69
2022/10/21 04:36:31;;;;;;;21.00;13.40;;;5.80;99.90;;;;;;8414520;28;20179;-69
2022/10/21 04:40:32;;;;;;;20.87;13.10;;;5.80;99.90;;;;;;8412793;28;20299;-69
2022/10/21 04:44:33;;;;;;;18.87;12.27;;;5.80;99.90;;;;;;8398109;28;20184;-69
2022/10/21 04:48:34;;;;;;;18.17;12.67;;;5.80;99.90;;;;;;8414357;28;20216;-69
2022/10/21 04:52:34;;;;;;;16.07;12.00;;;5.90;99.90;;;;;;8395323;28;20276;-69
2022/10/21 04:56:35;;;;;;;19.23;12.17;;;5.90;99.90;;;;;;8410470;28;20215;-69
2022/10/21 05:00:36;;;;;;;17.57;12.40;;;6.00;99.90;;;;;;8409461;28;21297;-69
2022/10/21 05:04:36;;;;;;;17.23;11.83;;;6.00;99.90;;;;;;8411862;28;20200;-69
2022/10/21 05:08:37;;;;;;;17.23;11.10;;;6.00;99.90;;;;;;8393801;28;20299;-69
2022/10/21 05:12:38;;;;;;;15.83;10.60;;;5.90;99.90;;;;;;8393315;28;20184;-69
2022/10/21 05:16:39;;;;;;;16.93;11.80;;;5.90;99.90;;;;;;8392680;28;20297;-69
2022/10/21 05:20:39;;;;;;;16.63;11.57;;;5.80;99.90;;;;;;8411296;28;20180;-68
2022/10/21 05:24:40;;;;;;;15.57;10.57;;;5.80;99.90;;;;;;8391074;28;20193;-69
2022/10/21 05:28:41;;;;;;;18.60;13.00;;;5.80;99.90;;;;;;8394517;28;20212;-68
2022/10/21 05:32:42;;;;;;;15.70;12.27;;;5.70;99.90;;;;;;8409264;28;20203;-68
2022/10/21 05:36:43;;;;;;;19.97;13.37;;;5.80;99.90;;;;;;8401856;28;20214;-69
2022/10/21 05:40:44;;;;;;;23.47;16.47;;;5.80;99.90;;;;;;8410733;28;20215;-70
2022/10/21 05:44:44;;;;;;;36.03;23.40;;;5.80;99.90;;;;;;8392890;28;20180;-69
2022/10/21 05:48:45;;;;;;;40.13;26.40;;;5.80;99.90;;;;;;8413381;28;20184;-69
2022/10/21 05:52:46;;;;;;;49.27;32.13;;;5.80;99.90;;;;;;8409491;28;20180;-70
2022/10/21 05:56:47;;;;;;;46.73;29.37;;;5.80;99.90;;;;;;8399328;28;20229;-70
2022/10/21 06:00:49;;;;;;;30.97;20.00;;;5.80;99.90;;;;;;8409934;28;20196;-71
2022/10/21 06:04:50;;;;;;;37.87;23.40;;;5.70;99.90;;;;;;8415561;28;20196;-71
2022/10/21 06:08:51;;;;;;;32.33;21.13;;;5.70;99.90;;;;;;8416026;28;20180;-69
2022/10/21 06:12:51;;;;;;;31.07;19.00;;;5.80;99.90;;;;;;8396679;28;20255;-71
2022/10/21 06:16:52;;;;;;;22.03;14.90;;;5.80;99.90;;;;;;8413787;28;20191;-69
2022/10/21 06:20:53;;;;;;;24.27;14.73;;;5.90;99.90;;;;;;8400135;28;20204;-70
2022/10/21 06:24:54;;;;;;;23.03;14.53;;;5.90;99.90;;;;;;8393663;28;20191;-70
2022/10/21 06:28:56;;;;;;;26.77;16.70;;;6.00;99.90;;;;;;8394113;28;20188;-69
2022/10/21 06:32:56;;;;;;;30.30;20.53;;;6.10;99.90;;;;;;8412230;28;20302;-70
2022/10/21 06:36:57;;;;;;;40.50;27.50;;;6.30;99.90;;;;;;8411811;28;20196;-70
2022/10/21 06:41:08;;;;;;;34.30;24.33;;;6.40;99.90;;;;;;8395880;28;20281;-70
2022/10/21 06:45:09;;;;;;;39.73;26.13;;;6.50;99.90;;;;;;8415725;28;20177;-69
2022/10/21 06:49:10;;;;;;;39.63;28.50;;;6.50;99.90;;;;;;8417736;28;20257;-69
2022/10/21 06:53:10;;;;;;;43.70;29.10;;;6.60;99.90;;;;;;8417860;28;20188;-70
2022/10/21 06:57:11;;;;;;;35.23;24.17;;;6.60;99.90;;;;;;8396595;28;20201;-69
2022/10/21 07:01:22;;;;;;;38.60;22.50;;;6.60;99.90;;;;;;8395357;28;20455;-70
2022/10/21 07:05:22;;;;;;;28.73;19.60;;;6.70;99.90;;;;;;8416752;28;20211;-69
2022/10/21 07:09:23;;;;;;;31.50;22.27;;;6.80;99.90;;;;;;8416892;28;20180;-69
2022/10/21 07:13:24;;;;;;;31.83;22.23;;;7.00;99.90;;;;;;8398956;28;20187;-70
2022/10/21 07:17:29;;;;;;;27.97;19.13;;;7.10;99.90;;;;;;8397954;28;20199;-71
2022/10/21 07:21:30;;;;;;;19.33;13.53;;;7.20;99.90;;;;;;8399282;28;20212;-70
2022/10/21 07:25:31;;;;;;;19.03;12.27;;;7.40;99.90;;;;;;8415476;28;20267;-69
2022/10/21 07:29:32;;;;;;;15.07;10.97;;;7.60;99.90;;;;;;8396901;28;20185;-69
2022/10/21 07:33:34;;;;;;;16.40;11.07;;;7.80;99.90;;;;;;8414562;28;20238;-70
2022/10/21 07:37:35;;;;;;;13.80;10.30;;;8.10;99.90;;;;;;8414792;28;20219;-70
2022/10/21 07:41:41;;;;;;;10.60;9.00;;;8.50;99.90;;;;;;8392245;28;20204;-70
2022/10/21 07:45:43;;;;;;;12.00;8.97;;;8.80;99.90;;;;;;8397695;28;20185;-72
2022/10/21 07:49:43;;;;;;;15.37;9.77;;;9.20;99.90;;;;;;8414643;28;20219;-70
2022/10/21 07:53:45;;;;;;;15.90;9.50;;;9.50;99.90;;;;;;8414282;28;20582;-70
2022/10/21 07:57:46;;;;;;;15.77;9.23;;;9.60;99.90;;;;;;8413449;28;20211;-71
2022/10/21 08:01:47;;;;;;;12.47;9.17;;;9.70;99.90;;;;;;8412305;28;20221;-70
2022/10/21 08:05:47;;;;;;;35.67;16.83;;;9.80;99.90;;;;;;8414828;28;20267;-70
2022/10/21 08:09:48;;;;;;;37.60;17.43;;;9.90;99.90;;;;;;8394824;28;20184;-70
2022/10/21 08:13:49;;;;;;;41.00;18.00;;;10.10;99.90;;;;;;8412219;28;20182;-70
2022/10/21 08:17:50;;;;;;;30.90;14.80;;;10.40;99.90;;;;;;8412667;28;20190;-69
2022/10/21 08:21:51;;;;;;;30.93;16.70;;;10.70;99.90;;;;;;8396392;28;20298;-70
2022/10/21 08:25:55;;;;;;;45.60;22.63;;;10.80;99.90;;;;;;8391687;28;20249;-70
2022/10/21 08:29:56;;;;;;;50.87;22.97;;;10.80;77.30;;;;;;8392715;28;20184;-71
2022/10/21 08:33:57;;;;;;;20.73;12.93;;;10.80;1.00;;;;;;8402373;28;20185;-71
2022/10/21 08:37:59;;;;;;;21.00;13.03;;;10.70;1.00;;;;;;8393403;28;20181;-70
2022/10/21 08:42:04;;;;;;;33.27;19.27;;;10.80;99.90;;;;;;8394395;28;20205;-70
2022/10/21 08:46:12;;;;;;;30.10;19.87;;;11.00;99.90;;;;;;8411370;28;20227;-70
2022/10/21 08:50:20;;;;;;;25.90;17.10;;;11.00;99.90;;;;;;8410609;28;20177;-71
2022/10/21 08:54:40;;;;;;;23.23;17.23;;;11.20;99.90;;;;;;8410338;28;20191;-71
2022/10/21 08:58:45;;;;;;;19.63;14.37;;;11.50;99.90;;;;;;8409725;28;20212;-70
2022/10/21 09:02:57;;;;;;;20.87;13.97;;;11.80;99.90;;;;;;8412358;28;20219;-70
2022/10/21 09:07:26;;;;;;;23.33;17.17;;;12.00;1.00;;;;;;8388599;28;20226;-71
2022/10/21 09:11:53;;;;;;;21.33;15.33;;;12.20;1.00;;;;;;8402691;28;20284;-71
2022/10/21 09:16:03;;;;;;;17.30;11.70;;;12.20;1.00;;;;;;8384434;28;20605;-71
2022/10/21 09:20:21;;;;;;;13.57;11.13;;;12.60;99.90;;;;;;8413318;28;20193;-70
2022/10/21 09:24:51;;;;;;;15.57;11.63;;;12.90;99.90;;;;;;8394008;28;20517;-71
2022/10/21 09:28:51;;;;;;;14.27;10.43;;;13.20;99.90;;;;;;8411160;28;20183;-69
2022/10/21 09:32:58;;;;;;;18.93;13.27;;;13.40;99.90;;;;;;8402265;28;20188;-71
2022/10/21 09:37:01;;;;;;;12.37;10.23;;;13.70;1.00;;;;;;8413692;28;20188;-71
2022/10/21 09:41:04;;;;;;;13.93;10.40;;;13.60;1.00;;;;;;8414438;28;20212;-71
2022/10/21 09:45:14;;;;;;;14.73;10.47;;;13.50;1.00;;;;;;8412996;28;20190;-73
2022/10/21 09:49:29;;;;;;;12.60;9.53;;;13.50;28.60;;;;;;8395431;28;20189;-70
2022/10/21 09:53:30;;;;;;;11.07;8.20;;;13.60;46.60;;;;;;8394662;28;20268;-71
2022/10/21 09:57:51;;;;;;;11.77;8.63;;;13.30;32.10;;;;;;8394901;28;20269;-71
2022/10/21 10:01:54;;;;;;;12.77;8.37;;;13.20;56.00;;;;;;8409035;28;20208;-70
2022/10/21 10:05:55;;;;;;;10.43;7.93;;;13.30;99.90;;;;;;8394934;28;20191;-71
2022/10/21 10:09:56;;;;;;;16.67;10.83;;;13.70;10.00;;;;;;8394395;28;20576;-71
2022/10/21 10:13:57;;;;;;;14.00;8.40;;;14.00;1.00;;;;;;8396374;28;20276;-70
2022/10/21 10:17:58;;;;;;;11.87;8.40;;;14.40;1.00;;;;;;8416219;28;20180;-71
2022/10/21 10:22:13;;;;;;;12.13;7.43;;;14.70;1.00;;;;;;8421808;28;20219;-69
2022/10/21 10:26:27;;;;;;;9.63;7.17;;;15.20;1.00;;;;;;8405056;28;20238;-71
2022/10/21 10:30:39;;;;;;;10.90;6.80;;;15.60;1.00;;;;;;8428159;28;20199;-71
2022/10/21 10:34:50;;;;;;;16.27;8.37;;;15.80;1.00;;;;;;8409702;28;20191;-71
2022/10/21 10:38:55;;;;;;;8.03;6.17;;;15.90;1.00;;;;;;8407327;28;20365;-72
2022/10/21 10:43:20;;;;;;;8.97;5.90;;;16.00;1.00;;;;;;8407762;28;20236;-70
2022/10/21 10:47:29;;;;;;;9.80;6.90;;;16.00;1.00;;;;;;8399142;28;20219;-72
2022/10/21 10:51:35;;;;;;;9.70;6.30;;;15.80;1.00;;;;;;8424129;28;20293;-71
2022/10/21 10:55:42;;;;;;;8.93;6.70;;;15.80;1.00;;;;;;8423111;28;20188;-71
2022/10/21 10:59:50;;;;;;;12.33;7.63;;;15.60;99.90;;;;;;8416619;28;20261;-72
2022/10/21 11:03:56;;;;;;;10.80;8.07;;;15.40;1.00;;;;;;8418799;28;20220;-71
2022/10/21 11:08:04;;;;;;;9.77;7.13;;;15.20;1.00;;;;;;8419961;28;20644;-71
2022/10/21 11:12:19;;;;;;;8.67;6.27;;;15.10;1.00;;;;;;8426808;28;20185;-71
2022/10/21 11:16:47;;;;;;;11.13;6.63;;;15.40;1.00;;;;;;8418708;28;20239;-72
2022/10/21 11:21:06;;;;;;;8.20;6.50;;;15.60;1.00;;;;;;8398723;28;20212;-72
2022/10/21 11:25:13;;;;;;;8.47;6.43;;;15.70;99.90;;;;;;8419462;28;20223;-70
2022/10/21 11:29:38;;;;;;;10.13;6.53;;;15.60;99.90;;;;;;8418322;28;20188;-71
2022/10/21 11:33:48;;;;;;;8.17;5.57;;;15.50;1.00;;;;;;8399904;28;20218;-71
2022/10/21 11:37:55;;;;;;;7.87;5.50;;;15.60;1.00;;;;;;8410323;28;20184;-71
2022/10/21 11:42:07;;;;;;;8.50;6.63;;;15.90;1.00;;;;;;8421147;28;20211;-71
2022/10/21 11:46:39;;;;;;;7.47;5.43;;;16.20;1.00;;;;;;8418139;28;20185;-70
2022/10/21 11:50:51;;;;;;;7.77;5.50;;;16.70;99.90;;;;;;8416038;28;20190;-71
2022/10/21 11:55:00;;;;;;;6.27;4.90;;;16.80;99.90;;;;;;8403647;28;20207;-71
2022/10/21 11:59:26;;;;;;;7.40;5.47;;;17.00;99.90;;;;;;8392869;28;20209;-70
2022/10/21 12:03:54;;;;;;;7.23;4.97;;;17.10;99.90;;;;;;8395607;28;20219;-71
2022/10/21 12:08:13;;;;;;;7.00;4.33;;;17.10;99.90;;;;;;8414965;28;20194;-71
2022/10/21 12:12:20;;;;;;;8.03;5.90;;;17.20;99.90;;;;;;8393368;28;20195;-71
2022/10/21 12:16:28;;;;;;;8.10;4.73;;;17.20;99.90;;;;;;8394867;28;20189;-70
2022/10/21 12:20:30;;;;;;;7.40;4.90;;;17.40;99.90;;;;;;8412615;28;20192;-71
2022/10/21 12:24:43;;;;;;;6.70;4.87;;;17.50;99.90;;;;;;8410614;28;20177;-71
2022/10/21 12:29:02;;;;;;;10.47;6.37;;;17.40;99.90;;;;;;8410625;28;20241;-70
2022/10/21 12:33:42;;;;;;;8.23;5.67;;;17.10;1.00;;;;;;8409853;28;20252;-70
2022/10/21 12:37:51;;;;;;;6.30;5.10;;;16.80;1.00;;;;;;8407801;28;20196;-71
2022/10/21 12:42:03;;;;;;;7.33;4.97;;;16.60;1.00;;;;;;8390360;28;20216;-70
2022/10/21 12:46:10;;;;;;;7.57;5.27;;;16.40;1.00;;;;;;8409316;28;20177;-70
2022/10/21 12:50:14;;;;;;;7.87;5.23;;;16.20;1.00;;;;;;8410294;28;20338;-70
2022/10/21 12:54:19;;;;;;;5.90;4.67;;;16.10;1.00;;;;;;8411530;28;20185;-72
2022/10/21 12:58:40;;;;;;;7.47;5.40;;;16.00;1.00;;;;;;8408183;28;20204;-70
2022/10/21 13:03:03;;;;;;;7.00;5.43;;;15.90;1.00;;;;;;8391016;28;20216;-70
2022/10/21 13:07:13;;;;;;;10.40;5.73;;;15.80;1.00;;;;;;8390347;28;20180;-70
2022/10/21 13:11:35;;;;;;;9.23;4.90;;;15.70;1.00;;;;;;8410222;28;20315;-71
2022/10/21 13:15:45;;;;;;;6.30;5.00;;;15.60;1.00;;;;;;8388991;28;20183;-70
2022/10/21 13:19:47;;;;;;;6.57;5.20;;;15.40;1.00;;;;;;8408452;28;20176;-70
2022/10/21 13:23:51;;;;;;;5.80;4.40;;;15.20;53.90;;;;;;8391892;28;20208;-70
2022/10/21 13:28:12;;;;;;;6.53;4.63;;;15.10;89.20;;;;;;8391896;28;20172;-70
2022/10/21 13:32:18;;;;;;;6.57;5.20;;;15.00;99.90;;;;;;8393166;28;20408;-70
2022/10/21 13:36:34;;;;;;;7.30;5.13;;;14.90;99.90;;;;;;8391928;28;20203;-70
2022/10/21 13:40:43;;;;;;;6.73;5.30;;;14.80;99.90;;;;;;8391126;28;20180;-70
2022/10/21 13:44:57;;;;;;;8.97;6.50;;;14.70;99.90;;;;;;8407754;28;20242;-70
2022/10/21 13:48:59;;;;;;;9.73;5.87;;;14.70;99.90;;;;;;8397324;28;20177;-70
2022/10/21 13:53:42;;;;;;;12.60;7.10;;;14.70;99.90;;;;;;8394210;28;20195;-71
2022/10/21 13:57:47;;;;;;;11.13;6.57;;;14.60;1.00;;;;;;8415192;28;20196;-71
2022/10/21 14:01:51;;;;;;;8.10;6.03;;;14.40;1.00;;;;;;8415927;28;20220;-71
2022/10/21 14:05:59;;;;;;;7.30;6.03;;;14.40;1.00;;;;;;8402681;28;20333;-70
2022/10/21 14:10:00;;;;;;;8.47;6.13;;;14.40;29.20;;;;;;8414223;28;20177;-71
2022/10/21 14:14:05;;;;;;;8.27;5.60;;;14.30;99.90;;;;;;8396012;28;20191;-71
2022/10/21 14:18:07;;;;;;;5.50;4.70;;;14.10;99.90;;;;;;8397879;28;20245;-71
2022/10/21 14:22:13;;;;;;;5.53;4.53;;;14.10;99.90;;;;;;8417343;28;20234;-70
2022/10/21 14:26:14;;;;;;;5.60;4.50;;;14.00;99.90;;;;;;8415863;28;20189;-71
2022/10/21 14:30:24;;;;;;;5.67;5.00;;;13.90;1.00;;;;;;8396772;28;20526;-70
2022/10/21 14:34:28;;;;;;;6.27;4.80;;;13.80;41.80;;;;;;8400417;28;20280;-70
2022/10/21 14:38:39;;;;;;;6.40;4.80;;;13.80;99.90;;;;;;8412637;28;20199;-71
2022/10/21 14:42:40;;;;;;;6.80;4.90;;;13.70;1.00;;;;;;8399363;28;20205;-70
2022/10/21 14:46:44;;;;;;;7.60;4.77;;;13.60;99.90;;;;;;8416197;28;20229;-70
2022/10/21 14:50:53;;;;;;;7.00;5.20;;;13.50;1.00;;;;;;8396989;28;20540;-70
2022/10/21 14:55:00;;;;;;;8.20;6.10;;;13.50;76.80;;;;;;8387259;28;20185;-70
2022/10/21 14:59:23;;;;;;;8.40;6.03;;;13.40;99.90;;;;;;8398209;28;20267;-70
2022/10/21 15:03:58;;;;;;;7.20;6.30;;;13.40;99.90;;;;;;8394546;28;20216;-69
2022/10/21 15:08:18;;;;;;;11.80;7.33;;;13.20;1.00;;;;;;8395718;28;20188;-69
2022/10/21 15:12:18;;;;;;;7.43;6.40;;;13.20;47.00;;;;;;8412735;28;20223;-69
2022/10/21 15:16:23;;;;;;;8.60;6.80;;;13.20;1.00;;;;;;8391639;28;20271;-70
2022/10/21 15:20:25;;;;;;;9.10;6.90;;;13.00;99.90;;;;;;8412382;28;20216;-69
2022/10/21 15:24:43;;;;;;;10.33;7.03;;;13.00;1.00;;;;;;8395523;28;20216;-69
2022/10/21 15:28:44;;;;;;;10.40;7.67;;;12.90;99.90;;;;;;8415547;28;20184;-70
2022/10/21 15:32:46;;;;;;;11.93;9.23;;;12.90;99.90;;;;;;8395688;28;20183;-70
2022/10/21 15:36:47;;;;;;;14.50;11.30;;;12.80;99.90;;;;;;8414479;28;20260;-70
2022/10/21 15:40:49;;;;;;;13.30;10.60;;;12.70;1.00;;;;;;8398988;28;20191;-69
2022/10/21 15:44:50;;;;;;;11.37;9.10;;;12.70;99.90;;;;;;8414018;28;20176;-70
2022/10/21 15:48:51;;;;;;;10.37;8.40;;;12.50;99.90;;;;;;8416888;28;20176;-69
2022/10/21 15:52:52;;;;;;;11.37;8.80;;;12.50;99.90;;;;;;8395660;28;20193;-69
2022/10/21 15:56:53;;;;;;;10.17;8.03;;;12.40;1.00;;;;;;8403456;28;20210;-69
2022/10/21 16:00:54;;;;;;;13.93;10.87;;;12.40;1.00;;;;;;8411020;28;20321;-69
2022/10/21 16:04:55;;;;;;;18.30;10.87;;;12.30;87.70;;;;;;8398233;28;20184;-69
2022/10/21 16:08:56;;;;;;;13.13;11.47;;;12.30;99.90;;;;;;8396079;28;20190;-69
2022/10/21 16:12:57;;;;;;;14.07;10.20;;;12.20;1.00;;;;;;8396017;28;20181;-70
2022/10/21 16:16:58;;;;;;;12.07;10.27;;;12.20;1.00;;;;;;8414875;28;20184;-70
2022/10/21 16:20:59;;;;;;;18.77;13.47;;;12.10;1.00;;;;;;8396388;28;20226;-70
2022/10/21 16:25:00;;;;;;;14.63;11.33;;;12.00;99.90;;;;;;8415168;28;20177;-69
2022/10/21 16:29:01;;;;;;;15.17;12.33;;;12.00;99.90;;;;;;8395920;28;20181;-70
2022/10/21 16:33:02;;;;;;;15.67;11.60;;;11.90;99.90;;;;;;8394123;28;20326;-69
2022/10/21 16:37:25;;;;;;;18.83;13.63;;;11.90;99.90;;;;;;8413067;28;20296;-69
2022/10/21 16:41:27;;;;;;;14.07;10.53;;;11.90;99.90;;;;;;8391439;28;20216;-68
2022/10/21 16:45:30;;;;;;;15.60;12.07;;;11.90;99.90;;;;;;8391803;28;20176;-68
2022/10/21 16:49:32;;;;;;;16.73;11.53;;;11.90;99.90;;;;;;8413788;28;20181;-70
2022/10/21 16:53:33;;;;;;;13.07;10.03;;;11.90;99.90;;;;;;8411950;28;20185;-69
2022/10/21 16:57:34;;;;;;;13.57;10.80;;;11.90;99.90;;;;;;8390950;28;20340;-69
2022/10/21 17:01:35;;;;;;;17.87;12.33;;;11.90;99.90;;;;;;8412192;28;20244;-69
2022/10/21 17:05:36;;;;;;;15.77;11.97;;;11.90;99.90;;;;;;8394192;28;20192;-70
2022/10/21 17:09:37;;;;;;;18.47;12.73;;;11.90;99.90;;;;;;8394217;28;20271;-69
2022/10/21 17:13:37;;;;;;;16.57;12.30;;;11.90;99.90;;;;;;8392250;28;20219;-69
2022/10/21 17:17:38;;;;;;;14.10;12.13;;;11.90;99.90;;;;;;8392275;28;20195;-69
2022/10/21 17:21:39;;;;;;;17.30;12.63;;;12.00;99.90;;;;;;8393115;28;20209;-69
2022/10/21 17:25:40;;;;;;;29.93;26.07;;;12.00;99.90;;;;;;8392034;28;20231;-69
2022/10/21 17:29:41;;;;;;;62.43;35.70;;;12.00;99.90;;;;;;8410342;28;20191;-69
2022/10/21 17:33:43;;;;;;;111.70;76.93;;;12.00;99.90;;;;;;8410085;28;20181;-68
2022/10/21 17:37:45;;;;;;;51.67;33.73;;;11.90;99.90;;;;;;8411845;28;20196;-69
2022/10/21 17:41:46;;;;;;;28.83;20.90;;;11.80;99.90;;;;;;8392699;28;20215;-68
2022/10/21 17:45:47;;;;;;;25.27;18.90;;;11.70;99.90;;;;;;8410726;28;20222;-68
2022/10/21 17:49:48;;;;;;;26.77;18.70;;;11.70;99.90;;;;;;8392751;28;20191;-69
2022/10/21 17:53:51;;;;;;;25.50;19.17;;;11.70;99.90;;;;;;8392124;28;20226;-69
2022/10/21 17:57:51;;;;;;;21.13;16.50;;;11.70;99.90;;;;;;8405961;28;20216;-68
2022/10/21 18:01:52;;;;;;;18.20;15.33;;;11.70;99.90;;;;;;8389927;28;20212;-68
2022/10/21 18:05:54;;;;;;;33.93;21.97;;;11.80;99.90;;;;;;8411993;28;20180;-69
2022/10/21 18:09:55;;;;;;;27.63;20.70;;;11.90;99.90;;;;;;8390878;28;20184;-68
2022/10/21 18:13:56;;;;;;;28.63;19.70;;;11.90;99.90;;;;;;8389244;28;20281;-69
2022/10/21 18:17:57;;;;;;;25.00;19.30;;;11.90;99.90;;;;;;8391304;28;20238;-68
2022/10/21 18:21:58;;;;;;;23.87;17.50;;;11.90;99.90;;;;;;8392734;28;20273;-68
2022/10/21 18:26:04;;;;;;;24.43;16.90;;;11.90;99.90;;;;;;8391294;28;20213;-68
2022/10/21 18:30:06;;;;;;;21.53;15.27;;;11.90;99.90;;;;;;8392005;28;20199;-68
2022/10/21 18:34:08;;;;;;;19.83;14.00;;;11.90;99.90;;;;;;8393317;28;20275;-69
2022/10/21 18:38:09;;;;;;;18.60;13.87;;;11.90;99.90;;;;;;8388961;28;20223;-67
2022/10/21 18:42:10;;;;;;;18.23;12.97;;;11.80;99.90;;;;;;8418712;28;20626;-67
2022/10/21 18:46:11;;;;;;;18.07;13.27;;;11.80;99.90;;;;;;8398109;28;20288;-68
2022/10/21 18:50:14;;;;;;;15.37;12.23;;;11.80;99.90;;;;;;8399321;28;20184;-68
2022/10/21 18:54:15;;;;;;;16.73;12.67;;;11.70;99.90;;;;;;8414528;28;20192;-69
2022/10/21 18:58:16;;;;;;;15.00;12.30;;;11.70;99.90;;;;;;8412227;28;20215;-69
2022/10/21 19:02:22;;;;;;;17.70;12.90;;;11.60;99.90;;;;;;8391675;28;20220;-69
2022/10/21 19:06:41;;;;;;;16.83;13.80;;;11.50;99.90;;;;;;8415031;28;20569;-68
2022/10/21 19:10:42;;;;;;;15.97;12.93;;;11.50;99.90;;;;;;8396987;28;20185;-68
2022/10/21 19:14:43;;;;;;;16.00;11.93;;;11.40;99.90;;;;;;8394601;28;21259;-68
2022/10/21 19:18:44;;;;;;;18.27;13.17;;;11.40;99.90;;;;;;8394655;28;20279;-68
2022/10/21 19:22:46;;;;;;;17.67;12.23;;;11.30;99.90;;;;;;8397376;28;20474;-68
2022/10/21 19:26:55;;;;;;;15.40;12.13;;;11.30;99.90;;;;;;8401755;28;20228;-68
2022/10/21 19:30:55;;;;;;;14.40;11.90;;;11.30;99.90;;;;;;8388336;28;20374;-69
2022/10/21 19:34:57;;;;;;;17.00;12.63;;;11.20;99.90;;;;;;8414557;28;20181;-68
2022/10/21 19:38:57;;;;;;;15.80;12.33;;;11.10;99.90;;;;;;8400688;28;20191;-69
2022/10/21 19:42:58;;;;;;;17.70;14.00;;;11.10;99.90;;;;;;8392908;28;20576;-68
2022/10/21 19:46:59;;;;;;;19.40;14.00;;;11.10;99.90;;;;;;8396122;28;20180;-69
2022/10/21 19:51:00;;;;;;;18.77;12.73;;;11.10;99.90;;;;;;8394018;28;20193;-68
2022/10/21 19:55:00;;;;;;;16.87;12.43;;;11.10;99.90;;;;;;8392874;28;20216;-69
2022/10/21 19:59:02;;;;;;;14.90;12.17;;;11.00;99.90;;;;;;8392111;28;20208;-68
2022/10/21 20:03:03;;;;;;;13.47;11.50;;;10.90;99.90;;;;;;8385954;28;20212;-69
2022/10/21 20:07:04;;;;;;;14.93;11.93;;;10.70;99.90;;;;;;8395448;28;20192;-69
2022/10/21 20:11:10;;;;;;;15.70;12.23;;;10.60;99.90;;;;;;8393318;28;20218;-69
2022/10/21 20:15:11;;;;;;;15.87;12.27;;;10.50;99.90;;;;;;8391660;28;20208;-69
2022/10/21 20:19:12;;;;;;;12.90;11.50;;;10.40;99.90;;;;;;8393084;28;20203;-69
2022/10/21 20:23:13;;;;;;;16.40;11.43;;;10.30;99.90;;;;;;8377772;28;20227;-69
2022/10/21 20:27:14;;;;;;;13.17;11.77;;;10.20;99.90;;;;;;8408905;28;20264;-69
2022/10/21 20:31:16;;;;;;;15.43;11.77;;;10.20;99.90;;;;;;8409793;28;20187;-69
2022/10/21 20:35:18;;;;;;;12.30;10.97;;;10.20;99.90;;;;;;8394707;28;20192;-69
2022/10/21 20:39:19;;;;;;;13.40;11.47;;;10.30;99.90;;;;;;8392017;28;20195;-69
2022/10/21 20:43:20;;;;;;;13.00;11.37;;;10.30;99.90;;;;;;8413266;28;20217;-70
2022/10/21 20:47:21;;;;;;;14.00;11.90;;;10.40;99.90;;;;;;8409215;28;20241;-69
2022/10/21 20:51:25;;;;;;;16.50;12.97;;;10.40;99.90;;;;;;8391313;28;20187;-69
2022/10/21 20:55:26;;;;;;;16.67;12.03;;;10.40;99.90;;;;;;8409505;28;20206;-69
2022/10/21 20:59:27;;;;;;;14.80;12.17;;;10.50;99.90;;;;;;8405945;28;20222;-69
2022/10/21 21:03:27;;;;;;;16.63;13.17;;;10.50;99.90;;;;;;8390462;28;20216;-69